Time;durP1;ratioP1;P1;durP2;ratioP2;P2;SDS_P1;SDS_P2;PMS_P1;PMS_P2;Temp;Humidity;BMP_temperature;BMP_pressure;BME280_temperature;BME280_humidity;BME280_pressure;Samples;Min_cycle;Max_cycle;Signal;HPM_P1;HPM_P2
2023/12/15 00:04:37;;;;;;;;;;;;;;;;;;10461104;28;20498;-80
2023/12/15 00:09:39;;;;;;;12.13;5.13;;;;;;;;;;10469695;28;19924;-81
2023/12/15 00:14:43;;;;;;;12.55;5.28;;;;;;;;;;10454189;28;20040;-80
2023/12/15 00:19:46;;;;;;;11.32;4.88;;;;;;;;;;10457892;28;20052;-78
2023/12/15 00:24:49;;;;;;;12.75;4.80;;;;;;;;;;10462365;28;20583;-79
2023/12/15 00:29:53;;;;;;;10.70;4.85;;;;;;;;;;10454743;28;20032;-79
2023/12/15 00:34:55;;;;;;;9.95;4.32;;;;;;;;;;10448918;28;20060;-80
2023/12/15 00:39:58;;;;;;;10.20;4.78;;;;;;;;;;10469186;28;20068;-79
2023/12/15 00:45:03;;;;;;;10.20;4.25;;;;;;;;;;10464221;28;20053;-79
2023/12/15 00:50:06;;;;;;;14.25;5.57;;;;;;;;;;10466219;28;20563;-80
2023/12/15 00:55:09;;;;;;;14.90;5.73;;;;;;;;;;10466644;28;20120;-80
2023/12/15 01:00:14;;;;;;;13.05;5.85;;;;;;;;;;10467361;28;20402;-79
2023/12/15 01:05:18;;;;;;;17.92;6.35;;;;;;;;;;10468884;28;20037;-79
2023/12/15 01:10:21;;;;;;;14.45;6.45;;;;;;;;;;10462954;28;20543;-79
2023/12/15 01:15:25;;;;;;;17.27;7.03;;;;;;;;;;10467430;28;20055;-79
2023/12/15 01:20:28;;;;;;;;;;;;;;;;;;10465792;28;20436;-79
2023/12/15 01:25:31;;;;;;;18.23;7.07;;;;;;;;;;10468630;28;20620;-79
2023/12/15 01:30:35;;;;;;;16.83;6.20;;;;;;;;;;10470267;28;20052;-79
2023/12/15 01:35:38;;;;;;;;;;;;;;;;;;10467364;28;20049;-79
2023/12/15 01:40:40;;;;;;;18.15;6.63;;;;;;;;;;10476724;28;19924;-78
2023/12/15 01:45:44;;;;;;;17.20;6.80;;;;;;;;;;10464621;28;20410;-79
2023/12/15 01:50:49;;;;;;;13.98;5.78;;;;;;;;;;10462677;28;20036;-80
2023/12/15 01:55:52;;;;;;;10.63;4.30;;;;;;;;;;10466765;28;20044;-79
2023/12/15 02:00:56;;;;;;;9.07;3.50;;;;;;;;;;10460301;28;20520;-80
2023/12/15 02:05:59;;;;;;;;;;;;;;;;;;10480885;28;20067;-80
2023/12/15 02:11:01;;;;;;;5.10;2.75;;;;;;;;;;10462595;28;20309;-77
2023/12/15 02:16:06;;;;;;;7.18;3.00;;;;;;;;;;10465194;28;20036;-79
2023/12/15 02:21:09;;;;;;;8.27;3.42;;;;;;;;;;10465439;28;20510;-78
2023/12/15 02:26:13;;;;;;;7.80;3.38;;;;;;;;;;10467044;28;20106;-78
2023/12/15 02:31:15;;;;;;;;;;;;;;;;;;10467125;28;20040;-79
2023/12/15 02:36:19;;;;;;;10.00;4.53;;;;;;;;;;10455543;28;20282;-79
2023/12/15 02:41:23;;;;;;;9.93;4.07;;;;;;;;;;10465143;28;20050;-79
2023/12/15 02:46:25;;;;;;;10.45;3.58;;;;;;;;;;10457998;28;20476;-80
2023/12/15 02:51:28;;;;;;;9.63;4.38;;;;;;;;;;10464279;28;20167;-76
2023/12/15 02:56:33;;;;;;;8.48;4.07;;;;;;;;;;10457820;28;20122;-78
2023/12/15 03:01:36;;;;;;;10.27;4.18;;;;;;;;;;10463148;28;20037;-77
2023/12/15 03:06:39;;;;;;;12.07;4.07;;;;;;;;;;10462923;28;20497;-79
2023/12/15 03:11:43;;;;;;;11.38;4.72;;;;;;;;;;10474911;28;20489;-77
2023/12/15 03:16:46;;;;;;;10.88;3.85;;;;;;;;;;10465821;28;20040;-79
2023/12/15 03:21:49;;;;;;;13.15;4.53;;;;;;;;;;10459933;28;20090;-79
2023/12/15 03:26:53;;;;;;;13.65;5.35;;;;;;;;;;10460890;28;20048;-79
2023/12/15 03:31:57;;;;;;;10.18;4.55;;;;;;;;;;10466413;28;20076;-80
2023/12/15 03:37:01;;;;;;;12.82;5.05;;;;;;;;;;10462243;28;20051;-79
2023/12/15 03:42:07;;;;;;;10.90;3.97;;;;;;;;;;10458071;28;20512;-79
2023/12/15 03:47:09;;;;;;;12.45;5.15;;;;;;;;;;10473748;28;20032;-79
2023/12/15 03:52:12;;;;;;;14.48;5.30;;;;;;;;;;10453038;28;20067;-78
2023/12/15 03:57:16;;;;;;;12.88;5.45;;;;;;;;;;10453392;28;20372;-78
2023/12/15 04:02:20;;;;;;;14.57;5.28;;;;;;;;;;10454956;28;20040;-79
2023/12/15 04:07:23;;;;;;;13.65;5.32;;;;;;;;;;10459214;28;20445;-78
2023/12/15 04:12:27;;;;;;;10.10;4.32;;;;;;;;;;10457255;28;20588;-78
2023/12/15 04:17:30;;;;;;;11.60;4.72;;;;;;;;;;10461805;28;20440;-78
2023/12/15 04:22:33;;;;;;;13.40;5.43;;;;;;;;;;10472200;28;20426;-78
2023/12/15 04:27:37;;;;;;;12.02;5.13;;;;;;;;;;10474988;28;20048;-79
2023/12/15 04:32:42;;;;;;;12.70;5.07;;;;;;;;;;10467659;28;20044;-78
2023/12/15 04:37:45;;;;;;;13.75;5.82;;;;;;;;;;10467472;28;20044;-79
2023/12/15 04:42:49;;;;;;;13.70;5.07;;;;;;;;;;10465181;28;20036;-79
2023/12/15 04:47:53;;;;;;;15.75;5.25;;;;;;;;;;10463223;28;20044;-78
2023/12/15 04:52:56;;;;;;;16.63;5.70;;;;;;;;;;10466556;28;20045;-79
2023/12/15 04:58:01;;;;;;;14.98;5.80;;;;;;;;;;10467709;28;20128;-79
2023/12/15 05:03:04;;;;;;;13.20;5.13;;;;;;;;;;10462723;28;20044;-79
2023/12/15 05:08:07;;;;;;;13.90;5.75;;;;;;;;;;10468509;28;20044;-79
2023/12/15 05:13:11;;;;;;;16.05;5.78;;;;;;;;;;10471412;28;20040;-79
2023/12/15 05:18:13;;;;;;;14.45;5.28;;;;;;;;;;10462896;28;20055;-78
2023/12/15 05:23:16;;;;;;;13.88;6.20;;;;;;;;;;10467061;28;20040;-78
2023/12/15 05:28:20;;;;;;;13.15;5.30;;;;;;;;;;10465318;28;20128;-79
2023/12/15 05:33:23;;;;;;;14.68;5.72;;;;;;;;;;10463199;28;20458;-78
2023/12/15 05:38:26;;;;;;;14.18;5.85;;;;;;;;;;10460879;28;20512;-78
2023/12/15 05:43:30;;;;;;;15.57;6.80;;;;;;;;;;10479067;28;20044;-78
2023/12/15 05:48:33;;;;;;;13.93;5.65;;;;;;;;;;10463436;28;20036;-78
2023/12/15 05:53:37;;;;;;;12.93;5.40;;;;;;;;;;10446148;28;20478;-78
2023/12/15 05:58:58;;;;;;;13.45;4.88;;;;;;;;;;10481143;28;20291;-79
2023/12/15 06:04:01;;;;;;;12.77;5.00;;;;;;;;;;10463848;28;20036;-78
2023/12/15 06:09:03;;;;;;;11.98;4.97;;;;;;;;;;10461105;28;21769;-78
2023/12/15 06:14:07;;;;;;;10.63;3.60;;;;;;;;;;10458982;28;20044;-80
2023/12/15 06:19:10;;;;;;;9.90;3.90;;;;;;;;;;10463230;28;20041;-78
2023/12/15 06:24:13;;;;;;;8.63;3.17;;;;;;;;;;10461349;28;20135;-78
2023/12/15 06:29:17;;;;;;;7.72;3.53;;;;;;;;;;10465915;28;20028;-79
2023/12/15 06:34:20;;;;;;;;;;;;;;;;;;10462545;28;20584;-79
2023/12/15 06:39:23;;;;;;;10.00;3.72;;;;;;;;;;10478845;28;19924;-79
2023/12/15 06:44:27;;;;;;;4.93;2.42;;;;;;;;;;10471931;28;20074;-78
2023/12/15 06:49:31;;;;;;;7.22;2.90;;;;;;;;;;10474020;28;20067;-77
2023/12/15 06:54:34;;;;;;;9.52;3.42;;;;;;;;;;10479035;28;20045;-78
2023/12/15 06:59:38;;;;;;;9.35;3.78;;;;;;;;;;10468518;28;20037;-81
2023/12/15 07:04:40;;;;;;;6.68;3.28;;;;;;;;;;10480311;28;20060;-78
2023/12/15 07:09:43;;;;;;;10.57;4.28;;;;;;;;;;10479463;28;20051;-77
2023/12/15 07:14:47;;;;;;;8.68;4.00;;;;;;;;;;10472393;28;20039;-77
2023/12/15 07:19:50;;;;;;;9.00;3.55;;;;;;;;;;10479368;28;20041;-77
2023/12/15 07:24:52;;;;;;;11.93;4.38;;;;;;;;;;10467894;28;20052;-80
2023/12/15 07:29:56;;;;;;;10.63;4.28;;;;;;;;;;10470776;28;20235;-80
2023/12/15 07:34:59;;;;;;;11.77;4.45;;;;;;;;;;10469770;28;20175;-77
2023/12/15 07:40:03;;;;;;;10.07;4.50;;;;;;;;;;10462330;28;20397;-78
2023/12/15 07:45:08;;;;;;;12.50;4.50;;;;;;;;;;10459255;28;20790;-79
2023/12/15 07:50:13;;;;;;;12.40;4.47;;;;;;;;;;10461766;28;20040;-79
2023/12/15 07:55:17;;;;;;;10.75;4.80;;;;;;;;;;10460310;28;21788;-78
2023/12/15 08:00:22;;;;;;;13.30;4.35;;;;;;;;;;10438788;28;20551;-78
2023/12/15 08:05:25;;;;;;;11.00;4.20;;;;;;;;;;10470362;28;20254;-78
2023/12/15 08:10:29;;;;;;;14.13;5.60;;;;;;;;;;10459394;28;20055;-77
2023/12/15 08:15:32;;;;;;;;;;;;;;;;;;10458687;28;20056;-76
2023/12/15 08:20:36;;;;;;;12.55;5.03;;;;;;;;;;10461062;28;20396;-76
2023/12/15 08:25:38;;;;;;;12.27;4.80;;;;;;;;;;10462907;28;20053;-77
2023/12/15 08:30:41;;;;;;;13.85;5.90;;;;;;;;;;10459541;28;20153;-76
2023/12/15 08:35:45;;;;;;;11.95;5.10;;;;;;;;;;10461594;28;20458;-78
2023/12/15 08:40:48;;;;;;;13.65;5.05;;;;;;;;;;10463486;28;20120;-75
2023/12/15 08:45:51;;;;;;;11.40;4.13;;;;;;;;;;10462970;28;20049;-76
2023/12/15 08:50:55;;;;;;;14.38;4.70;;;;;;;;;;10460905;28;20119;-77
2023/12/15 08:55:57;;;;;;;9.45;3.72;;;;;;;;;;10459962;28;20136;-78
2023/12/15 09:01:00;;;;;;;10.60;4.03;;;;;;;;;;10455382;28;20047;-77
2023/12/15 09:06:06;;;;;;;12.30;4.35;;;;;;;;;;10470592;28;20052;-77
2023/12/15 09:11:28;;;;;;;9.95;4.10;;;;;;;;;;10457535;28;20082;-77
2023/12/15 09:16:32;;;;;;;11.67;4.67;;;;;;;;;;10461630;28;20052;-77
2023/12/15 09:21:36;;;;;;;11.52;4.70;;;;;;;;;;10457307;28;20144;-77
2023/12/15 09:26:39;;;;;;;11.00;4.03;;;;;;;;;;10461956;28;20143;-79
2023/12/15 09:31:42;;;;;;;13.05;4.20;;;;;;;;;;10463964;28;20915;-78
2023/12/15 09:36:46;;;;;;;8.02;3.53;;;;;;;;;;10463339;28;20052;-77
2023/12/15 09:41:49;;;;;;;9.63;3.63;;;;;;;;;;10466342;28;20131;-78
2023/12/15 09:46:52;;;;;;;13.82;4.30;;;;;;;;;;10464386;28;20055;-79
2023/12/15 09:51:57;;;;;;;10.73;4.03;;;;;;;;;;10457504;28;20028;-77
2023/12/15 09:57:00;;;;;;;9.75;4.25;;;;;;;;;;10463434;28;20047;-78
2023/12/15 10:02:04;;;;;;;6.80;3.20;;;;;;;;;;10458332;28;20048;-78
2023/12/15 10:07:08;;;;;;;8.88;3.90;;;;;;;;;;10463840;28;20052;-79
2023/12/15 10:12:10;;;;;;;;;;;;;;;;;;10464073;28;20952;-78
2023/12/15 10:17:14;;;;;;;10.52;3.95;;;;;;;;;;10464011;28;19932;-79
2023/12/15 10:22:18;;;;;;;9.57;3.60;;;;;;;;;;10469107;28;20165;-79
2023/12/15 10:27:20;;;;;;;9.00;3.67;;;;;;;;;;10465993;28;20589;-78
2023/12/15 10:32:23;;;;;;;10.82;3.70;;;;;;;;;;10466166;28;20243;-78
2023/12/15 10:37:28;;;;;;;10.75;4.18;;;;;;;;;;10468714;28;20187;-78
2023/12/15 10:42:30;;;;;;;11.80;4.32;;;;;;;;;;10463068;28;20464;-77
2023/12/15 10:47:33;;;;;;;9.10;3.85;;;;;;;;;;10463929;28;20036;-78
2023/12/15 10:52:37;;;;;;;6.93;2.38;;;;;;;;;;10460144;28;20098;-77
2023/12/15 10:57:41;;;;;;;9.70;3.38;;;;;;;;;;10457730;28;20040;-77
2023/12/15 11:02:43;;;;;;;10.05;3.85;;;;;;;;;;10454692;28;20035;-76
2023/12/15 11:07:50;;;;;;;9.85;3.75;;;;;;;;;;10464186;28;20060;-77
2023/12/15 11:12:53;;;;;;;9.35;3.80;;;;;;;;;;10458502;28;20037;-77
2023/12/15 11:17:57;;;;;;;7.85;3.15;;;;;;;;;;10461545;28;20055;-77
2023/12/15 11:23:07;;;;;;;8.40;3.38;;;;;;;;;;10459532;28;20036;-77
2023/12/15 11:28:13;;;;;;;13.10;3.80;;;;;;;;;;10458019;28;20517;-77
2023/12/15 11:33:36;;;;;;;4.50;2.05;;;;;;;;;;10463064;28;20057;-77
2023/12/15 11:38:47;;;;;;;8.80;2.67;;;;;;;;;;10464694;28;20040;-77
2023/12/15 11:43:51;;;;;;;9.15;2.95;;;;;;;;;;10461418;28;20131;-76
2023/12/15 11:48:54;;;;;;;11.93;4.33;;;;;;;;;;10469381;28;20052;-76
2023/12/15 11:54:00;;;;;;;8.50;3.30;;;;;;;;;;10455440;28;20397;-77
2023/12/15 11:59:03;;;;;;;7.78;2.67;;;;;;;;;;10447206;28;20498;-75
2023/12/15 12:04:06;;;;;;;11.35;3.65;;;;;;;;;;10468043;28;20554;-76
2023/12/15 12:09:12;;;;;;;8.82;3.78;;;;;;;;;;10460791;28;20495;-76
2023/12/15 12:14:15;;;;;;;10.70;3.97;;;;;;;;;;10458370;28;20049;-76
2023/12/15 12:19:18;;;;;;;8.43;3.63;;;;;;;;;;10453562;28;20044;-78
2023/12/15 12:24:22;;;;;;;8.88;3.47;;;;;;;;;;10464151;28;20041;-76
2023/12/15 12:29:25;;;;;;;11.43;3.63;;;;;;;;;;10478680;28;20127;-76
2023/12/15 12:34:27;;;;;;;6.07;2.80;;;;;;;;;;10465219;28;20048;-76
2023/12/15 12:39:32;;;;;;;7.68;2.70;;;;;;;;;;10468184;28;20453;-76
2023/12/15 12:44:34;;;;;;;;;;;;;;;;;;10470039;28;20060;-76
2023/12/15 12:49:37;;;;;;;6.55;2.30;;;;;;;;;;10473451;28;19947;-76
2023/12/15 12:54:55;;;;;;;7.72;3.63;;;;;;;;;;10472253;28;20048;-76
2023/12/15 12:59:57;;;;;;;12.38;3.40;;;;;;;;;;10467075;28;20051;-75
2023/12/15 13:05:00;;;;;;;7.25;3.55;;;;;;;;;;10471699;28;20044;-75
2023/12/15 13:10:08;;;;;;;10.05;3.42;;;;;;;;;;10458397;28;20036;-76
2023/12/15 13:15:16;;;;;;;11.93;3.40;;;;;;;;;;10464367;28;21792;-75
2023/12/15 13:20:19;;;;;;;4.75;2.05;;;;;;;;;;10467678;28;20129;-76
2023/12/15 13:25:23;;;;;;;9.25;3.42;;;;;;;;;;10467332;28;20564;-76
2023/12/15 13:30:26;;;;;;;11.65;3.80;;;;;;;;;;10470052;28;20631;-76
2023/12/15 13:35:29;;;;;;;7.38;3.50;;;;;;;;;;10461460;28;20068;-75
2023/12/15 13:40:34;;;;;;;13.07;4.70;;;;;;;;;;10463565;28;20051;-75
2023/12/15 13:45:37;;;;;;;8.50;3.38;;;;;;;;;;10460083;28;20526;-76
2023/12/15 13:50:46;;;;;;;10.90;4.00;;;;;;;;;;10462159;28;20110;-76
2023/12/15 13:55:50;;;;;;;9.07;3.35;;;;;;;;;;10465120;28;20037;-76
2023/12/15 14:00:53;;;;;;;12.02;4.13;;;;;;;;;;10459927;28;20206;-75
2023/12/15 14:05:56;;;;;;;9.23;3.65;;;;;;;;;;10459675;28;20047;-76
2023/12/15 14:11:00;;;;;;;12.93;4.23;;;;;;;;;;10458552;28;20055;-76
2023/12/15 14:16:07;;;;;;;11.82;4.40;;;;;;;;;;10473300;28;20055;-76
2023/12/15 14:21:11;;;;;;;5.15;2.75;;;;;;;;;;10465802;28;20127;-77
2023/12/15 14:26:15;;;;;;;10.60;4.30;;;;;;;;;;10455394;28;20131;-75
2023/12/15 14:31:18;;;;;;;8.00;3.30;;;;;;;;;;10468041;28;20421;-76
2023/12/15 14:36:20;;;;;;;11.73;3.97;;;;;;;;;;10464968;28;20501;-77
2023/12/15 14:41:26;;;;;;;9.23;3.38;;;;;;;;;;10461283;28;20469;-76
2023/12/15 14:46:29;;;;;;;9.27;3.40;;;;;;;;;;10473968;28;20115;-77
2023/12/15 14:51:31;;;;;;;8.45;3.90;;;;;;;;;;10456881;28;20640;-75
2023/12/15 14:56:36;;;;;;;13.00;4.80;;;;;;;;;;10461580;28;20055;-76
2023/12/15 15:01:38;;;;;;;13.40;4.43;;;;;;;;;;10458292;28;20041;-75
2023/12/15 15:06:41;;;;;;;10.35;4.00;;;;;;;;;;10437193;28;20083;-76
2023/12/15 15:11:50;;;;;;;11.63;3.60;;;;;;;;;;10463515;28;20482;-75
2023/12/15 15:16:53;;;;;;;12.82;4.47;;;;;;;;;;10460999;28;20072;-75
2023/12/15 15:21:56;;;;;;;9.15;3.83;;;;;;;;;;10455668;28;20064;-75
2023/12/15 15:27:00;;;;;;;13.77;4.80;;;;;;;;;;10457562;28;20131;-76
2023/12/15 15:32:02;;;;;;;10.80;4.57;;;;;;;;;;10438764;28;20086;-76
2023/12/15 15:37:05;;;;;;;9.70;4.15;;;;;;;;;;10456305;28;20040;-76
2023/12/15 15:42:09;;;;;;;10.32;3.97;;;;;;;;;;10450347;28;20047;-76
2023/12/15 15:47:14;;;;;;;16.27;4.50;;;;;;;;;;10452993;28;20049;-76
2023/12/15 15:52:25;;;;;;;11.13;4.45;;;;;;;;;;10455415;28;20485;-75
2023/12/15 15:57:29;;;;;;;10.55;4.60;;;;;;;;;;10459796;28;20603;-77
2023/12/15 16:02:32;;;;;;;9.48;3.63;;;;;;;;;;10454623;28;20120;-76
2023/12/15 16:07:35;;;;;;;6.63;2.75;;;;;;;;;;10437367;28;20045;-76
2023/12/15 16:12:40;;;;;;;17.10;4.75;;;;;;;;;;10452375;28;20043;-77
2023/12/15 16:17:42;;;;;;;9.57;3.95;;;;;;;;;;10463630;28;20040;-76
2023/12/15 16:22:45;;;;;;;9.40;3.45;;;;;;;;;;10463057;28;20049;-76
2023/12/15 16:27:49;;;;;;;11.55;4.45;;;;;;;;;;10461507;28;20052;-77
2023/12/15 16:32:53;;;;;;;14.30;5.20;;;;;;;;;;10451585;28;20497;-76
2023/12/15 16:37:56;;;;;;;;;;;;;;;;;;10480321;28;20052;-77
2023/12/15 16:43:00;;;;;;;11.25;5.03;;;;;;;;;;10468606;28;19931;-77
2023/12/15 16:48:06;;;;;;;5.88;2.15;;;;;;;;;;10470359;28;20513;-77
2023/12/15 16:53:28;;;;;;;11.25;4.25;;;;;;;;;;10473141;28;20036;-78
2023/12/15 16:58:35;;;;;;;10.52;4.68;;;;;;;;;;10468076;28;20040;-76
2023/12/15 17:03:38;;;;;;;;;;;;;;;;;;10469961;28;20262;-75
2023/12/15 17:08:41;;;;;;;9.93;4.13;;;;;;;;;;10466245;28;20001;-75
2023/12/15 17:13:45;;;;;;;13.40;4.72;;;;;;;;;;10464865;28;20041;-76
2023/12/15 17:18:48;;;;;;;12.70;4.47;;;;;;;;;;10481004;28;20036;-75
2023/12/15 17:23:52;;;;;;;11.95;5.00;;;;;;;;;;10478894;28;20039;-75
2023/12/15 17:28:56;;;;;;;9.90;4.68;;;;;;;;;;10483208;28;20543;-75
2023/12/15 17:33:58;;;;;;;10.45;4.28;;;;;;;;;;10488735;28;20046;-75
2023/12/15 17:39:01;;;;;;;11.77;4.60;;;;;;;;;;10488824;28;20090;-75
2023/12/15 17:44:09;;;;;;;6.75;2.67;;;;;;;;;;10478700;28;20041;-75
2023/12/15 17:49:12;;;;;;;10.55;4.40;;;;;;;;;;10486605;28;20553;-76
2023/12/15 17:54:16;;;;;;;3.75;1.48;;;;;;;;;;10486821;28;20028;-78
2023/12/15 17:59:20;;;;;;;6.40;3.63;;;;;;;;;;10479486;28;20049;-77
2023/12/15 18:04:23;;;;;;;10.57;4.50;;;;;;;;;;10476013;28;20032;-76
2023/12/15 18:09:26;;;;;;;6.03;2.47;;;;;;;;;;10480187;28;20029;-75
2023/12/15 18:14:30;;;;;;;10.85;4.72;;;;;;;;;;10481082;28;20048;-75
2023/12/15 18:19:32;;;;;;;12.10;5.10;;;;;;;;;;10481643;28;20137;-76
2023/12/15 18:24:38;;;;;;;10.93;4.65;;;;;;;;;;10482961;28;20041;-75
2023/12/15 18:29:42;;;;;;;7.57;3.15;;;;;;;;;;10477503;28;20516;-76
2023/12/15 18:34:45;;;;;;;6.28;2.92;;;;;;;;;;10482390;28;20036;-77
2023/12/15 18:39:50;;;;;;;6.50;2.85;;;;;;;;;;10480164;28;20044;-76
2023/12/15 18:44:54;;;;;;;10.98;4.57;;;;;;;;;;10481372;28;20070;-76
2023/12/15 18:50:00;;;;;;;8.60;4.07;;;;;;;;;;10485075;28;20060;-74
2023/12/15 18:55:03;;;;;;;7.90;3.88;;;;;;;;;;10477193;28;20080;-75
2023/12/15 19:00:09;;;;;;;9.40;3.85;;;;;;;;;;10475865;28;20048;-76
2023/12/15 19:05:11;;;;;;;11.23;4.22;;;;;;;;;;10481536;28;20087;-75
2023/12/15 19:10:14;;;;;;;1.65;1.20;;;;;;;;;;10485323;28;20048;-76
2023/12/15 19:15:20;;;;;;;10.50;4.80;;;;;;;;;;10472351;28;20040;-76
2023/12/15 19:20:28;;;;;;;8.63;4.07;;;;;;;;;;10476013;28;20044;-76
2023/12/15 19:25:31;;;;;;;9.23;4.07;;;;;;;;;;10478297;28;20040;-76
2023/12/15 19:30:35;;;;;;;9.55;3.22;;;;;;;;;;10474191;28;20120;-76
2023/12/15 19:35:38;;;;;;;4.82;2.83;;;;;;;;;;10465354;28;20128;-75
2023/12/15 19:40:40;;;;;;;16.83;4.95;;;;;;;;;;10472587;28;20098;-76
2023/12/15 19:45:45;;;;;;;6.03;2.33;;;;;;;;;;10474601;28;20041;-76
2023/12/15 19:50:48;;;;;;;5.55;2.28;;;;;;;;;;10477836;28;20045;-77
2023/12/15 19:55:51;;;;;;;11.43;4.93;;;;;;;;;;10477546;28;20416;-77
2023/12/15 20:00:55;;;;;;;10.20;4.55;;;;;;;;;;10479452;28;20120;-76
2023/12/15 20:05:58;;;;;;;12.02;4.93;;;;;;;;;;10461928;28;20048;-77
2023/12/15 20:11:02;;;;;;;12.80;5.47;;;;;;;;;;10476329;28;20049;-76
2023/12/15 20:16:06;;;;;;;6.68;2.97;;;;;;;;;;10478186;28;20028;-76
2023/12/15 20:21:08;;;;;;;;;;;;;;;;;;10476753;28;20037;-77
2023/12/15 20:26:11;;;;;;;14.43;5.70;;;;;;;;;;10480499;28;19924;-77
2023/12/15 20:31:16;;;;;;;15.25;5.70;;;;;;;;;;10474545;28;20049;-76
2023/12/15 20:36:19;;;;;;;11.95;5.10;;;;;;;;;;10480552;28;20037;-76
2023/12/15 20:41:22;;;;;;;13.17;4.50;;;;;;;;;;10484386;28;20090;-75
2023/12/15 20:46:28;;;;;;;12.45;5.80;;;;;;;;;;10478695;28;20068;-75
2023/12/15 20:51:31;;;;;;;9.48;3.72;;;;;;;;;;10474792;28;20476;-77
2023/12/15 20:56:34;;;;;;;12.90;5.20;;;;;;;;;;10487624;28;20151;-77
2023/12/15 21:01:38;;;;;;;10.30;4.45;;;;;;;;;;10490175;28;20378;-76
2023/12/15 21:06:41;;;;;;;;;;;;;;;;;;10485417;28;20112;-76
2023/12/15 21:11:45;;;;;;;13.68;6.07;;;;;;;;;;10487303;28;19952;-76
2023/12/15 21:16:48;;;;;;;;;;;;;;;;;;10488357;28;20107;-76
2023/12/15 21:21:52;;;;;;;11.82;5.32;;;;;;;;;;10489572;28;19974;-76
2023/12/15 21:26:55;;;;;;;9.65;3.65;;;;;;;;;;10479030;28;20519;-76
2023/12/15 21:31:58;;;;;;;11.52;5.50;;;;;;;;;;10488465;28;20056;-76
2023/12/15 21:37:02;;;;;;;5.43;2.60;;;;;;;;;;10493812;28;20490;-75
2023/12/15 21:42:05;;;;;;;13.88;5.63;;;;;;;;;;10474554;28;20043;-76
2023/12/15 21:47:08;;;;;;;4.63;2.28;;;;;;;;;;10484629;28;20032;-75
2023/12/15 21:52:12;;;;;;;13.43;3.83;;;;;;;;;;10484927;28;20044;-76
2023/12/15 21:57:15;;;;;;;13.73;5.72;;;;;;;;;;10485358;28;20702;-75
2023/12/15 22:02:19;;;;;;;15.07;5.32;;;;;;;;;;10483543;28;20045;-76
2023/12/15 22:07:23;;;;;;;14.68;5.70;;;;;;;;;;10486759;28;20570;-76
2023/12/15 22:12:26;;;;;;;;;;;;;;;;;;10478881;28;20041;-76
2023/12/15 22:17:28;;;;;;;13.02;4.68;;;;;;;;;;10464923;28;19932;-76
2023/12/15 22:22:32;;;;;;;15.13;5.82;;;;;;;;;;10461396;28;20040;-76
2023/12/15 22:27:35;;;;;;;14.70;6.75;;;;;;;;;;10441950;28;20049;-76
2023/12/15 22:32:39;;;;;;;18.45;6.40;;;;;;;;;;10466482;28;20397;-76
2023/12/15 22:37:43;;;;;;;15.93;6.38;;;;;;;;;;10470704;28;20554;-75
2023/12/15 22:42:45;;;;;;;4.88;2.75;;;;;;;;;;10466187;28;20045;-76
2023/12/15 22:47:48;;;;;;;16.42;5.97;;;;;;;;;;10462723;28;20039;-76
2023/12/15 22:52:52;;;;;;;16.85;6.50;;;;;;;;;;10463707;28;20037;-76
2023/12/15 22:57:55;;;;;;;12.63;5.18;;;;;;;;;;10458693;28;20236;-75
2023/12/15 23:02:58;;;;;;;15.32;6.60;;;;;;;;;;10468541;28;20040;-76
2023/12/15 23:08:02;;;;;;;15.88;6.18;;;;;;;;;;10465615;28;20505;-76
2023/12/15 23:13:05;;;;;;;18.63;6.65;;;;;;;;;;10457949;28;20650;-77
2023/12/15 23:18:07;;;;;;;17.27;6.63;;;;;;;;;;10456847;28;20410;-76
2023/12/15 23:23:11;;;;;;;17.08;7.03;;;;;;;;;;10460468;28;20025;-76
2023/12/15 23:28:14;;;;;;;14.63;5.80;;;;;;;;;;10463129;28;20045;-76
2023/12/15 23:33:17;;;;;;;17.95;7.05;;;;;;;;;;10462301;28;20114;-75
2023/12/15 23:38:21;;;;;;;17.33;7.15;;;;;;;;;;10460256;28;20465;-74
2023/12/15 23:43:23;;;;;;;16.30;6.82;;;;;;;;;;10465185;28;20033;-75
2023/12/15 23:48:26;;;;;;;17.38;6.18;;;;;;;;;;10466234;28;20389;-75
2023/12/15 23:53:30;;;;;;;11.30;4.70;;;;;;;;;;10464859;28;20039;-75
2023/12/15 23:58:33;;;;;;;12.77;5.47;;;;;;;;;;10456043;28;20045;-76
